Time;durP1;ratioP1;P1;durP2;ratioP2;P2;SDS_P1;SDS_P2;PMS_P1;PMS_P2;Temp;Humidity;BMP_temperature;BMP_pressure;BME280_temperature;BME280_humidity;BME280_pressure;Samples;Min_cycle;Max_cycle;Signal;HPM_P1;HPM_P2
2022/01/31 00:00:58;;;;;;;20.67;5.10;;;;;;;2.55;100.00;99402.78;5113130;28;20219;-84
2022/01/31 00:03:30;;;;;;;18.73;4.00;;;;;;;2.64;100.00;99380.75;5110596;28;20199;-83
2022/01/31 00:06:00;;;;;;;18.20;4.60;;;;;;;2.67;100.00;99344.06;5111833;28;20237;-83
2022/01/31 00:08:28;;;;;;;19.23;4.17;;;;;;;2.81;100.00;99322.75;5112759;28;20190;-83
2022/01/31 00:10:58;;;;;;;15.07;4.30;;;;;;;2.76;100.00;99311.53;5111426;28;20201;-83
2022/01/31 00:13:33;;;;;;;14.50;3.73;;;;;;;2.89;100.00;99294.56;5064137;28;20195;-82
2022/01/31 00:16:02;;;;;;;13.67;4.10;;;;;;;2.99;100.00;99289.91;5111736;28;20190;-83
2022/01/31 00:18:31;;;;;;;14.00;3.13;;;;;;;2.96;100.00;99276.94;5107489;28;20198;-83
2022/01/31 00:20:59;;;;;;;11.53;4.00;;;;;;;3.02;100.00;99274.13;5109485;28;20214;-83
2022/01/31 00:23:27;;;;;;;16.43;4.20;;;;;;;3.01;100.00;99270.66;5107782;28;20225;-83
2022/01/31 00:25:55;;;;;;;16.10;4.47;;;;;;;2.86;100.00;99268.50;5111607;28;20207;-84
2022/01/31 00:28:25;;;;;;;20.07;4.03;;;;;;;2.74;100.00;99256.69;5113169;28;20271;-83
2022/01/31 00:30:53;;;;;;;14.03;3.80;;;;;;;2.62;100.00;99233.53;5113000;28;20668;-84
2022/01/31 00:33:22;;;;;;;20.97;4.30;;;;;;;2.65;100.00;99222.97;5112262;28;20187;-83
2022/01/31 00:35:50;;;;;;;14.93;3.50;;;;;;;2.69;100.00;99224.56;5110358;28;20704;-84
2022/01/31 00:38:19;;;;;;;14.27;3.63;;;;;;;2.86;100.00;99213.59;5111005;28;20217;-84
2022/01/31 00:40:48;;;;;;;13.80;3.40;;;;;;;2.78;100.00;99211.22;5113211;28;20234;-83
2022/01/31 00:43:18;;;;;;;15.80;4.10;;;;;;;2.67;100.00;99218.53;5114913;28;20203;-82
2022/01/31 00:45:58;;;;;;;20.10;3.93;;;;;;;2.64;100.00;99192.50;5112313;28;20199;-83
2022/01/31 00:48:34;;;;;;;17.17;3.77;;;;;;;2.75;100.00;99185.16;5111667;28;20194;-82
2022/01/31 00:51:02;;;;;;;16.13;3.90;;;;;;;2.75;100.00;99169.47;5094227;28;20206;-82
2022/01/31 00:53:30;;;;;;;13.10;3.30;;;;;;;2.78;100.00;99152.81;5111671;28;20191;-83
2022/01/31 00:55:59;;;;;;;17.60;3.73;;;;;;;2.83;100.00;99128.25;5112014;28;20195;-84
2022/01/31 00:58:27;;;;;;;18.97;4.10;;;;;;;2.69;100.00;99119.97;5114710;28;20274;-83
2022/01/31 01:00:57;;;;;;;17.37;4.03;;;;;;;2.69;100.00;99106.91;5114590;28;20741;-82
2022/01/31 01:03:29;;;;;;;16.57;4.00;;;;;;;2.64;100.00;99085.31;5111101;28;20195;-83
2022/01/31 01:05:57;;;;;;;13.73;3.87;;;;;;;2.77;100.00;99077.88;5114395;28;20320;-82
2022/01/31 01:08:30;;;;;;;12.20;3.50;;;;;;;2.80;100.00;99051.66;5110985;28;20225;-83
2022/01/31 01:10:59;;;;;;;14.83;3.60;;;;;;;2.87;100.00;99051.38;5109338;28;20203;-83
2022/01/31 01:13:28;;;;;;;13.90;3.77;;;;;;;2.78;100.00;99038.59;5114272;28;20183;-83
2022/01/31 01:15:58;;;;;;;18.17;3.53;;;;;;;2.84;100.00;99022.72;5110445;28;20206;-83
2022/01/31 01:18:27;;;;;;;12.37;3.13;;;;;;;2.86;100.00;99013.03;5049078;28;20196;-83
2022/01/31 01:20:58;;;;;;;17.00;4.43;;;;;;;2.98;100.00;99001.28;5051953;28;20216;-83
2022/01/31 01:23:26;;;;;;;16.07;3.63;;;;;;;2.96;100.00;98991.78;5055392;28;20197;-83
2022/01/31 01:25:54;;;;;;;9.10;3.30;;;;;;;3.08;100.00;98988.72;5056941;28;20190;-83
2022/01/31 01:28:25;;;;;;;14.87;3.67;;;;;;;2.84;100.00;98980.88;5003021;28;20219;-83
2022/01/31 01:30:54;;;;;;;16.80;3.50;;;;;;;2.91;100.00;98972.81;5045590;28;20251;-83
2022/01/31 01:33:25;;;;;;;13.77;3.30;;;;;;;2.97;100.00;98977.81;5046935;28;20219;-83
2022/01/31 01:35:55;;;;;;;14.80;3.37;;;;;;;3.03;100.00;98970.59;5063905;28;20187;-84
2022/01/31 01:38:28;;;;;;;14.13;3.87;;;;;;;2.96;100.00;98957.78;5112713;28;20195;-83
2022/01/31 01:40:59;;;;;;;18.40;3.60;;;;;;;2.94;100.00;98944.78;5110893;28;20226;-83
2022/01/31 01:43:31;;;;;;;10.10;2.87;;;;;;;2.94;100.00;98929.09;5071587;28;20226;-83
2022/01/31 01:46:03;;;;;;;9.53;3.07;;;;;;;3.08;100.00;98926.78;5066496;28;20283;-83
2022/01/31 01:48:32;;;;;;;14.53;3.13;;;;;;;3.08;100.00;98907.63;5071621;28;20207;-83
2022/01/31 01:51:01;;;;;;;10.20;2.77;;;;;;;3.10;100.00;98913.69;5067115;28;20215;-83
2022/01/31 01:53:29;;;;;;;14.90;3.53;;;;;;;3.04;100.00;98922.59;5064295;28;20193;-83
2022/01/31 01:55:58;;;;;;;16.30;3.23;;;;;;;3.07;100.00;98919.00;5064333;28;20203;-82
2022/01/31 01:58:30;;;;;;;9.73;2.90;;;;;;;3.14;100.00;98899.56;5068800;28;20192;-82
2022/01/31 02:01:01;;;;;;;11.63;3.30;;;;;;;3.06;100.00;98893.75;5076755;28;20191;-83
2022/01/31 02:03:34;;;;;;;15.37;3.20;;;;;;;3.13;100.00;98897.84;5112273;28;20215;-83
2022/01/31 02:06:06;;;;;;;13.67;3.13;;;;;;;3.09;100.00;98888.44;5111664;28;20206;-83
2022/01/31 02:08:41;;;;;;;13.33;3.00;;;;;;;3.09;100.00;98875.34;5112346;28;20274;-82
2022/01/31 02:11:13;;;;;;;9.53;3.23;;;;;;;3.20;100.00;98875.78;5113983;28;20194;-83
2022/01/31 02:13:41;;;;;;;12.50;3.53;;;;;;;3.11;100.00;98866.53;5113573;28;20207;-83
2022/01/31 02:16:10;;;;;;;8.77;3.00;;;;;;;3.08;100.00;98845.69;5112613;28;20195;-82
2022/01/31 02:18:48;;;;;;;11.60;3.00;;;;;;;3.11;100.00;98831.66;5113532;28;20214;-83
2022/01/31 02:21:18;;;;;;;11.53;3.47;;;;;;;3.05;100.00;98824.88;5113656;28;20238;-83
2022/01/31 02:23:48;;;;;;;9.20;2.87;;;;;;;3.09;100.00;98812.56;5094693;28;20203;-83
2022/01/31 02:26:17;;;;;;;14.93;3.67;;;;;;;2.82;100.00;98810.09;5111144;28;20195;-83
2022/01/31 02:28:45;;;;;;;15.43;3.77;;;;;;;2.87;100.00;98815.13;5093304;28;20282;-83
2022/01/31 02:31:14;;;;;;;12.60;3.70;;;;;;;2.93;100.00;98807.06;5112245;28;20236;-84
2022/01/31 02:33:42;;;;;;;11.67;3.83;;;;;;;2.92;100.00;98807.13;5113432;28;20196;-83
2022/01/31 02:36:10;;;;;;;14.13;4.07;;;;;;;2.67;100.00;98801.97;5106566;28;20201;-83
2022/01/31 02:38:40;;;;;;;13.63;3.73;;;;;;;2.86;100.00;98793.34;5108117;28;20195;-83
2022/01/31 02:41:08;;;;;;;16.53;3.67;;;;;;;2.84;100.00;98781.25;5113603;28;20227;-83
2022/01/31 02:43:38;;;;;;;12.80;4.27;;;;;;;2.82;100.00;98777.84;5115939;28;20256;-83
2022/01/31 02:46:07;;;;;;;9.93;3.40;;;;;;;2.94;100.00;98771.28;5114712;28;20207;-82
2022/01/31 02:48:36;;;;;;;15.10;4.00;;;;;;;2.88;100.00;98757.53;5117280;28;20191;-83
2022/01/31 02:51:09;;;;;;;16.23;4.43;;;;;;;2.86;100.00;98746.28;5117052;28;20244;-82
2022/01/31 02:53:41;;;;;;;15.00;3.80;;;;;;;2.88;100.00;98726.16;5115951;28;20195;-83
2022/01/31 02:56:11;;;;;;;14.27;3.93;;;;;;;2.68;100.00;98714.78;5116343;28;20218;-83
2022/01/31 02:58:39;;;;;;;15.23;4.30;;;;;;;2.70;100.00;98707.72;5117039;28;20240;-83
2022/01/31 03:01:09;;;;;;;12.27;3.80;;;;;;;2.70;100.00;98687.69;5115307;28;20273;-84
2022/01/31 03:03:37;;;;;;;15.73;4.57;;;;;;;2.57;100.00;98691.69;5116464;28;20219;-83
2022/01/31 03:06:08;;;;;;;15.37;4.20;;;;;;;2.48;100.00;98687.66;5117044;28;20198;-83
2022/01/31 03:08:37;;;;;;;15.50;4.53;;;;;;;2.37;100.00;98681.16;5115815;28;20252;-83
2022/01/31 03:11:06;;;;;;;19.87;4.50;;;;;;;2.29;100.00;98681.44;5091695;28;20223;-83
2022/01/31 03:13:36;;;;;;;14.60;4.27;;;;;;;2.26;100.00;98668.50;5091729;28;20199;-83
2022/01/31 03:16:06;;;;;;;17.47;4.53;;;;;;;2.35;100.00;98654.22;5093498;28;20223;-83
2022/01/31 03:18:35;;;;;;;17.27;3.97;;;;;;;2.37;100.00;98631.50;5011520;28;20731;-83
2022/01/31 03:21:03;;;;;;;16.03;4.13;;;;;;;2.35;100.00;98618.50;5002104;28;20257;-82
2022/01/31 03:23:33;;;;;;;12.50;4.13;;;;;;;2.15;100.00;98592.31;5011242;28;20222;-83
2022/01/31 03:26:02;;;;;;;13.23;4.33;;;;;;;2.22;100.00;98586.78;5015548;28;20234;-83
2022/01/31 03:28:31;;;;;;;17.97;4.43;;;;;;;2.23;100.00;98572.81;5014143;28;20281;-82
2022/01/31 03:31:01;;;;;;;16.07;4.60;;;;;;;2.21;100.00;98566.78;5010357;28;20661;-83
2022/01/31 03:33:31;;;;;;;12.50;4.43;;;;;;;2.22;100.00;98558.06;5006038;28;20231;-83
2022/01/31 03:35:59;;;;;;;17.73;4.20;;;;;;;2.24;100.00;98548.38;5037660;28;20633;-83
2022/01/31 03:38:28;;;;;;;17.63;4.70;;;;;;;2.28;100.00;98536.03;5114798;28;20232;-83
2022/01/31 03:40:56;;;;;;;10.37;4.03;;;;;;;2.26;100.00;98530.88;5115122;28;20230;-82
2022/01/31 03:43:25;;;;;;;18.67;4.53;;;;;;;2.08;100.00;98517.72;5110752;28;20219;-83
2022/01/31 03:45:53;;;;;;;16.87;4.57;;;;;;;2.14;100.00;98502.66;5114191;28;20207;-82
2022/01/31 03:48:24;;;;;;;11.97;4.23;;;;;;;1.97;100.00;98499.88;5109160;28;20191;-83
2022/01/31 03:50:54;;;;;;;20.03;4.27;;;;;;;2.21;100.00;98491.03;5011035;28;20190;-83
2022/01/31 03:53:22;;;;;;;18.67;4.23;;;;;;;2.21;100.00;98485.78;4992690;28;20199;-82
2022/01/31 03:55:51;;;;;;;16.03;3.80;;;;;;;2.17;100.00;98476.41;4987966;28;20195;-83
2022/01/31 03:58:19;;;;;;;9.60;3.43;;;;;;;2.33;100.00;98473.16;4994209;28;20191;-82
2022/01/31 04:00:48;;;;;;;11.80;3.70;;;;;;;2.28;100.00;98465.50;4988144;28;20191;-83
2022/01/31 04:03:18;;;;;;;10.30;3.30;;;;;;;2.28;100.00;98452.44;4993767;28;20254;-83
2022/01/31 04:05:47;;;;;;;19.20;4.07;;;;;;;2.26;100.00;98443.81;4987389;28;20203;-83
2022/01/31 04:08:19;;;;;;;10.20;3.57;;;;;;;2.34;100.00;98438.28;5003445;28;20196;-83
2022/01/31 04:10:47;;;;;;;11.97;3.50;;;;;;;2.34;100.00;98423.44;5052029;28;20193;-83
2022/01/31 04:13:18;;;;;;;12.67;3.63;;;;;;;2.29;100.00;98423.63;5046362;28;20663;-82
2022/01/31 04:15:49;;;;;;;14.13;3.60;;;;;;;2.36;100.00;98424.22;5057921;28;20196;-81
2022/01/31 04:18:18;;;;;;;11.73;3.63;;;;;;;2.37;100.00;98409.41;5019518;28;20690;-83
2022/01/31 04:20:47;;;;;;;11.70;3.70;;;;;;;2.40;100.00;98402.25;5050946;28;20263;-83
2022/01/31 04:23:20;;;;;;;14.67;3.80;;;;;;;2.28;100.00;98393.19;5051449;28;20213;-84
2022/01/31 04:25:54;;;;;;;11.23;3.73;;;;;;;2.35;100.00;98391.19;5109733;28;20207;-84
2022/01/31 04:28:29;;;;;;;14.17;3.60;;;;;;;2.30;100.00;98387.91;5059337;28;20195;-83
2022/01/31 04:31:11;;;;;;;13.17;3.70;;;;;;;2.26;100.00;98388.97;5076840;28;20195;-84
2022/01/31 04:33:41;;;;;;;12.10;4.00;;;;;;;2.28;100.00;98387.13;5108616;28;20191;-83
2022/01/31 04:36:14;;;;;;;11.80;3.67;;;;;;;2.19;100.00;98382.28;5110435;28;20195;-83
2022/01/31 04:38:43;;;;;;;11.73;3.80;;;;;;;2.10;100.00;98383.53;5112117;28;20264;-84
2022/01/31 04:41:13;;;;;;;15.10;4.10;;;;;;;2.14;100.00;98381.66;5106693;28;20219;-82
2022/01/31 04:43:43;;;;;;;15.97;4.00;;;;;;;2.06;100.00;98383.75;5111121;28;20221;-84
2022/01/31 04:46:12;;;;;;;10.10;3.90;;;;;;;1.87;100.00;98375.81;5111531;28;20243;-83
2022/01/31 04:48:43;;;;;;;21.37;5.93;;;;;;;1.85;100.00;98364.59;5109164;28;20484;-83
2022/01/31 04:51:14;;;;;;;17.37;4.87;;;;;;;1.77;100.00;98357.09;5066587;28;20219;-83
2022/01/31 04:53:48;;;;;;;15.73;5.40;;;;;;;1.71;100.00;98350.34;5063444;28;20295;-83
2022/01/31 04:56:21;;;;;;;16.43;6.50;;;;;;;1.77;100.00;98349.25;5047939;28;20200;-83
2022/01/31 04:58:54;;;;;;;19.03;6.83;;;;;;;1.73;100.00;98353.72;5045880;28;20706;-83
2022/01/31 05:01:23;;;;;;;19.27;6.10;;;;;;;1.69;100.00;98348.72;5045997;28;20316;-83
2022/01/31 05:03:52;;;;;;;16.20;5.13;;;;;;;1.69;100.00;98349.56;5047139;28;20225;-82
2022/01/31 05:06:32;;;;;;;13.40;4.93;;;;;;;1.70;100.00;98330.38;5046193;28;20199;-82
2022/01/31 05:09:00;;;;;;;17.73;5.17;;;;;;;1.76;100.00;98325.81;5054636;28;20203;-82
2022/01/31 05:11:29;;;;;;;17.63;5.77;;;;;;;1.74;100.00;98318.06;5066816;28;20200;-83
2022/01/31 05:13:57;;;;;;;14.03;5.13;;;;;;;1.58;100.00;98317.00;5072998;28;20695;-83
2022/01/31 05:16:26;;;;;;;15.77;5.87;;;;;;;1.58;100.00;98317.84;5112105;28;20255;-84
2022/01/31 05:19:01;;;;;;;14.23;5.73;;;;;;;1.43;100.00;98301.03;5112431;28;20194;-83
2022/01/31 05:21:32;;;;;;;14.27;5.53;;;;;;;1.64;100.00;98291.50;5110722;28;20195;-83
2022/01/31 05:24:00;;;;;;;15.67;5.27;;;;;;;1.55;100.00;98286.66;5115031;28;20222;-83
2022/01/31 05:26:28;;;;;;;9.33;5.03;;;;;;;1.59;100.00;98282.16;5114440;28;20198;-83
2022/01/31 05:28:57;;;;;;;11.40;5.63;;;;;;;1.61;100.00;98285.53;5113294;28;20203;-83
2022/01/31 05:31:26;;;;;;;13.30;5.63;;;;;;;1.48;100.00;98279.16;5109171;28;20202;-83
2022/01/31 05:33:55;;;;;;;10.90;5.87;;;;;;;1.55;100.00;98272.78;5075033;28;20215;-82
2022/01/31 05:36:24;;;;;;;11.20;6.17;;;;;;;1.47;100.00;98269.63;5106242;28;20210;-83
2022/01/31 05:38:54;;;;;;;11.10;5.93;;;;;;;1.54;100.00;98271.91;5113353;28;20198;-83
2022/01/31 05:41:23;;;;;;;13.93;6.60;;;;;;;1.44;100.00;98275.81;5092143;28;20192;-82
2022/01/31 05:43:54;;;;;;;16.20;6.30;;;;;;;1.49;100.00;98273.88;5085205;28;20686;-83
2022/01/31 05:46:23;;;;;;;14.30;6.23;;;;;;;1.57;100.00;98263.97;4979991;28;20197;-83
2022/01/31 05:48:52;;;;;;;18.77;6.03;;;;;;;1.58;100.00;98262.19;5027145;28;20201;-82
2022/01/31 05:51:23;;;;;;;9.50;5.40;;;;;;;1.50;100.00;98254.69;4975893;28;20185;-81
2022/01/31 05:53:54;;;;;;;11.97;5.87;;;;;;;1.44;100.00;98249.72;5020773;28;20225;-81
2022/01/31 05:56:22;;;;;;;16.63;6.10;;;;;;;1.56;100.00;98257.06;5029007;28;20202;-81
2022/01/31 05:58:51;;;;;;;11.57;5.93;;;;;;;1.59;100.00;98251.69;5027372;28;20213;-82
2022/01/31 06:01:20;;;;;;;9.83;5.33;;;;;;;1.60;100.00;98249.94;5026564;28;20190;-82
2022/01/31 06:03:49;;;;;;;8.80;5.00;;;;;;;1.61;100.00;98249.88;5020919;28;20255;-81
2022/01/31 06:06:17;;;;;;;12.57;5.83;;;;;;;1.43;100.00;98241.03;4931437;29;20256;-82
2022/01/31 06:08:47;;;;;;;10.97;5.30;;;;;;;1.53;100.00;98246.72;4927529;29;20268;-82
2022/01/31 06:11:17;;;;;;;11.47;5.50;;;;;;;1.41;100.00;98249.84;4857328;29;20245;-81
2022/01/31 06:13:47;;;;;;;12.03;5.67;;;;;;;1.32;100.00;98242.41;4916447;29;20213;-81
2022/01/31 06:16:15;;;;;;;12.50;6.77;;;;;;;1.30;100.00;98249.47;4916478;29;20217;-81
2022/01/31 06:18:46;;;;;;;16.37;6.33;;;;;;;1.32;100.00;98248.47;4916167;29;20202;-81
2022/01/31 06:21:15;;;;;;;10.97;6.80;;;;;;;1.30;100.00;98237.25;4916235;29;20213;-81
2022/01/31 06:23:43;;;;;;;11.13;7.07;;;;;;;1.32;100.00;98245.03;4933831;28;20218;-81
2022/01/31 06:26:16;;;;;;;16.70;7.70;;;;;;;1.30;100.00;98239.03;5007730;28;20202;-81
2022/01/31 06:28:46;;;;;;;16.33;7.20;;;;;;;1.39;100.00;98236.03;5029357;28;20207;-82
2022/01/31 06:31:16;;;;;;;11.60;6.00;;;;;;;1.55;100.00;98231.88;5095694;28;20204;-80
2022/01/31 06:33:44;;;;;;;13.67;5.07;;;;;;;1.76;100.00;98237.09;5097106;28;20222;-81
2022/01/31 06:36:14;;;;;;;10.07;4.77;;;;;;;1.87;100.00;98217.41;5092554;28;20195;-80
2022/01/31 06:38:45;;;;;;;15.10;5.77;;;;;;;1.83;100.00;98233.28;5072516;28;20194;-81
2022/01/31 06:41:16;;;;;;;11.80;5.03;;;;;;;1.89;100.00;98230.41;5110891;28;20223;-81
2022/01/31 06:43:46;;;;;;;10.40;5.10;;;;;;;1.97;100.00;98226.53;5111557;28;20296;-82
2022/01/31 06:46:15;;;;;;;9.67;4.77;;;;;;;2.03;100.00;98220.22;5107824;28;20650;-82
2022/01/31 06:48:47;;;;;;;9.17;5.00;;;;;;;2.08;100.00;98212.16;5117147;28;20205;-81
2022/01/31 06:51:16;;;;;;;7.60;4.47;;;;;;;2.08;100.00;98218.22;5112972;28;20251;-83
2022/01/31 06:53:48;;;;;;;9.53;4.60;;;;;;;2.05;100.00;98218.38;5111940;28;20248;-82
2022/01/31 06:56:17;;;;;;;9.10;4.87;;;;;;;2.14;100.00;98219.72;5109208;28;20195;-82
2022/01/31 06:58:49;;;;;;;7.57;4.13;;;;;;;2.13;100.00;98223.25;5110322;28;20199;-83
2022/01/31 07:01:24;;;;;;;7.53;4.57;;;;;;;2.15;100.00;98229.25;5113632;28;20206;-84
2022/01/31 07:03:54;;;;;;;7.70;3.57;;;;;;;2.16;100.00;98218.72;5117062;28;20305;-84
2022/01/31 07:06:24;;;;;;;5.70;4.20;;;;;;;2.17;100.00;98207.38;5109842;28;20226;-84
2022/01/31 07:08:55;;;;;;;9.53;3.90;;;;;;;2.23;100.00;98201.03;5106153;28;20190;-83
2022/01/31 07:11:28;;;;;;;6.77;4.23;;;;;;;2.34;100.00;98198.75;5113908;28;20187;-83
2022/01/31 07:14:05;;;;;;;6.23;3.80;;;;;;;2.43;100.00;98213.16;5111315;28;20195;-85
2022/01/31 07:16:34;;;;;;;4.90;3.43;;;;;;;2.29;100.00;98211.19;5112635;28;20224;-84
2022/01/31 07:19:06;;;;;;;8.90;4.13;;;;;;;2.16;100.00;98195.22;5106745;28;20199;-81
2022/01/31 07:21:39;;;;;;;6.47;3.53;;;;;;;2.24;100.00;98210.56;5066564;28;20237;-82
2022/01/31 07:24:22;;;;;;;7.37;3.60;;;;;;;2.39;100.00;98202.00;5071345;28;20219;-82
2022/01/31 07:26:53;;;;;;;7.13;3.83;;;;;;;2.34;100.00;98185.69;5069363;28;20200;-84
2022/01/31 07:29:23;;;;;;;5.33;3.63;;;;;;;2.41;100.00;98207.97;5040863;28;20338;-83
2022/01/31 07:31:56;;;;;;;7.17;3.73;;;;;;;2.52;100.00;98192.69;5068925;28;20200;-82
2022/01/31 07:34:25;;;;;;;7.10;3.87;;;;;;;2.54;100.00;98174.31;5066777;28;20810;-83
2022/01/31 07:36:54;;;;;;;5.27;3.60;;;;;;;2.63;100.00;98176.50;5072496;28;20204;-82
2022/01/31 07:39:22;;;;;;;7.77;3.80;;;;;;;2.65;100.00;98177.25;4959770;28;20220;-84
2022/01/31 07:41:51;;;;;;;5.40;4.20;;;;;;;2.57;100.00;98171.53;5051119;28;20247;-84
2022/01/31 07:44:20;;;;;;;8.13;4.23;;;;;;;2.60;100.00;98158.31;5053239;28;20221;-84
2022/01/31 07:46:52;;;;;;;7.40;4.23;;;;;;;2.74;100.00;98165.50;5048650;28;20196;-84
2022/01/31 07:49:22;;;;;;;6.50;3.90;;;;;;;2.71;100.00;98161.28;5045810;28;20201;-84
2022/01/31 07:51:51;;;;;;;9.70;4.20;;;;;;;2.80;100.00;98162.63;5047630;28;20239;-84
2022/01/31 07:54:24;;;;;;;8.40;4.03;;;;;;;2.72;100.00;98162.13;5049105;28;20201;-83
2022/01/31 07:56:53;;;;;;;8.43;4.40;;;;;;;2.74;100.00;98153.28;5064736;28;20184;-84
2022/01/31 07:59:21;;;;;;;6.80;4.40;;;;;;;2.77;100.00;98140.06;5111533;28;20252;-84
2022/01/31 08:01:51;;;;;;;7.53;4.20;;;;;;;2.81;100.00;98140.78;5115644;28;20194;-85
2022/01/31 08:04:24;;;;;;;7.43;3.80;;;;;;;2.88;100.00;98140.38;5115477;28;20218;-85
2022/01/31 08:06:54;;;;;;;7.63;4.67;;;;;;;2.83;100.00;98137.16;5114703;28;20183;-85
2022/01/31 08:09:22;;;;;;;6.40;4.33;;;;;;;2.87;100.00;98133.44;5106740;28;20199;-85
2022/01/31 08:11:51;;;;;;;10.73;4.43;;;;;;;2.96;100.00;98137.38;5108363;28;20195;-85
2022/01/31 08:14:20;;;;;;;7.17;4.40;;;;;;;2.99;100.00;98133.75;5106757;28;20203;-85
2022/01/31 08:16:48;;;;;;;13.03;5.60;;;;;;;3.10;100.00;98129.72;5046788;28;20199;-84
2022/01/31 08:19:18;;;;;;;46.13;24.97;;;;;;;3.10;100.00;98140.16;5042935;28;20201;-87
2022/01/31 08:22:08;;;;;;;37.57;21.00;;;;;;;3.20;100.00;98130.09;5051727;28;20285;-87
2022/01/31 08:24:38;;;;;;;28.03;14.57;;;;;;;3.25;100.00;98128.06;5048968;28;20232;-86
2022/01/31 08:27:07;;;;;;;25.33;15.37;;;;;;;3.34;100.00;98126.75;5045111;28;20216;-88
2022/01/31 08:29:38;;;;;;;21.30;11.93;;;;;;;3.40;100.00;98116.81;5047985;28;20193;-88
2022/01/31 08:32:17;;;;;;;11.30;4.60;;;;;;;3.51;100.00;98116.25;5047314;28;20197;-89
2022/01/31 08:37:37;;;;;;;9.80;4.40;;;;;;;3.56;100.00;98111.63;5111269;28;20198;-90
2022/01/31 08:40:09;;;;;;;9.60;4.80;;;;;;;3.65;100.00;98103.28;5111659;28;20227;-89
2022/01/31 08:42:38;;;;;;;10.20;4.27;;;;;;;3.58;100.00;98104.56;5108398;28;20688;-90
2022/01/31 08:45:08;;;;;;;10.30;5.20;;;;;;;3.58;100.00;98098.47;5109178;28;20267;-89
2022/01/31 08:47:41;;;;;;;9.83;4.60;;;;;;;3.64;100.00;98098.97;5052412;28;20193;-89
2022/01/31 08:50:12;;;;;;;9.87;4.17;;;;;;;3.64;100.00;98087.66;5045299;28;20239;-89
2022/01/31 08:52:41;;;;;;;5.50;3.80;;;;;;;3.66;100.00;98089.25;5040488;28;20207;-89
2022/01/31 08:55:11;;;;;;;13.63;4.37;;;;;;;3.71;100.00;98081.16;5044676;28;20201;-87
2022/01/31 08:57:40;;;;;;;9.20;4.13;;;;;;;3.65;100.00;98087.56;5049630;28;20196;-86
2022/01/31 09:00:09;;;;;;;9.30;4.00;;;;;;;3.69;100.00;98080.41;5047052;28;20275;-87
2022/01/31 09:02:41;;;;;;;9.00;3.40;;;;;;;3.76;100.00;98081.75;5044544;28;20300;-85
2022/01/31 09:05:13;;;;;;;8.47;3.40;;;;;;;3.78;100.00;98094.78;5044515;28;20217;-85
2022/01/31 09:07:41;;;;;;;7.33;3.43;;;;;;;3.79;100.00;98080.75;5043048;28;20185;-85
2022/01/31 09:10:10;;;;;;;7.63;3.67;;;;;;;3.78;100.00;98082.53;4958613;28;20199;-85
2022/01/31 09:12:39;;;;;;;6.70;3.37;;;;;;;3.80;100.00;98080.69;4985754;28;20226;-84
2022/01/31 09:15:11;;;;;;;8.03;3.40;;;;;;;3.79;100.00;98092.09;4983516;28;20198;-84
2022/01/31 09:17:40;;;;;;;7.13;2.93;;;;;;;3.64;100.00;98083.25;4986662;28;20194;-84
2022/01/31 09:20:12;;;;;;;5.30;2.50;;;;;;;3.68;100.00;98076.09;5029810;28;20198;-83
2022/01/31 09:22:43;;;;;;;4.10;2.10;;;;;;;3.67;100.00;98077.03;5022675;28;20333;-83
2022/01/31 09:25:15;;;;;;;4.40;2.57;;;;;;;3.57;100.00;98053.13;5028233;28;20226;-82
2022/01/31 09:27:44;;;;;;;3.63;2.13;;;;;;;3.63;100.00;98083.34;5049262;28;20195;-83
2022/01/31 09:30:14;;;;;;;5.80;2.30;;;;;;;3.66;100.00;98091.03;5108112;28;20207;-83
2022/01/31 09:32:42;;;;;;;2.90;2.00;;;;;;;3.58;100.00;98095.84;5105680;28;20198;-82
2022/01/31 09:35:13;;;;;;;5.47;3.20;;;;;;;3.62;100.00;98106.06;5109790;28;20191;-82
2022/01/31 09:37:42;;;;;;;5.23;2.30;;;;;;;3.60;100.00;98089.59;5106820;28;20229;-83
2022/01/31 09:40:16;;;;;;;4.20;2.40;;;;;;;3.63;100.00;98080.72;5103949;28;20264;-83
2022/01/31 09:43:05;;;;;;;3.17;2.53;;;;;;;3.55;100.00;98083.75;5008089;28;20218;-82
2022/01/31 09:45:52;;;;;;;6.17;2.00;;;;;;;3.56;100.00;98072.34;5011849;28;20210;-82
2022/01/31 09:48:38;;;;;;;4.63;2.03;;;;;;;3.62;100.00;98060.72;5008485;28;20338;-83
2022/01/31 09:51:11;;;;;;;5.70;2.47;;;;;;;3.55;100.00;98073.28;4969886;28;20251;-83
2022/01/31 09:53:46;;;;;;;4.13;1.80;;;;;;;3.55;100.00;98070.66;4971686;28;20203;-83
2022/01/31 09:56:16;;;;;;;2.20;1.40;;;;;;;3.61;100.00;98070.34;4962007;28;20258;-83
2022/01/31 09:58:48;;;;;;;3.93;1.90;;;;;;;3.56;100.00;98061.03;4915129;29;20250;-83
2022/01/31 10:01:22;;;;;;;3.90;1.57;;;;;;;3.55;100.00;98069.81;4949038;28;20199;-83
2022/01/31 10:03:54;;;;;;;3.07;1.50;;;;;;;3.55;100.00;98056.72;4970375;28;20207;-83
2022/01/31 10:06:41;;;;;;;2.07;1.37;;;;;;;3.57;100.00;98060.09;4974327;28;20223;-83
2022/01/31 10:09:13;;;;;;;3.47;1.90;;;;;;;3.36;100.00;98057.69;4989248;28;20199;-83
2022/01/31 10:11:46;;;;;;;4.90;1.80;;;;;;;3.41;100.00;98045.22;4990130;28;20250;-83
2022/01/31 10:17:06;;;;;;;1.73;1.50;;;;;;;3.38;100.00;98053.25;4991881;28;20199;-83
2022/01/31 10:19:51;;;;;;;3.47;2.00;;;;;;;3.34;100.00;98036.00;4931592;29;20213;-84
2022/01/31 10:22:23;;;;;;;1.80;1.30;;;;;;;3.42;100.00;98033.00;4924880;29;20197;-83
2022/01/31 10:24:55;;;;;;;1.43;1.20;;;;;;;3.44;100.00;98028.50;4926696;29;20255;-83
2022/01/31 10:27:27;;;;;;;4.17;1.67;;;;;;;3.42;100.00;98018.13;4934117;29;20714;-83
2022/01/31 10:30:07;;;;;;;3.70;1.60;;;;;;;3.41;100.00;98013.81;4932219;29;20204;-84
2022/01/31 10:32:42;;;;;;;4.13;1.70;;;;;;;3.54;100.00;98010.53;4942231;29;20207;-84
2022/01/31 10:35:15;;;;;;;1.60;1.33;;;;;;;3.58;100.00;98017.31;4944887;29;20203;-84
2022/01/31 10:37:45;;;;;;;2.87;1.57;;;;;;;3.64;100.00;98014.34;4998817;28;20236;-84
2022/01/31 10:43:45;;;;;;;3.50;1.40;;;;;;;3.64;100.00;98011.72;5051533;28;20227;-84
2022/01/31 10:50:38;;;;;;;5.23;1.73;;;;;;;3.65;100.00;98005.56;5045593;28;20224;-84
2022/01/31 10:52:30;;;;;;;2.77;1.60;;;;;;;3.85;100.00;98004.47;5050083;28;20259;-84
2022/01/31 10:55:17;;;;;;;3.43;1.50;;;;;;;3.72;100.00;97996.44;5048146;28;20184;-83
2022/01/31 10:58:04;;;;;;;3.13;1.60;;;;;;;3.78;100.00;98013.63;5048309;28;20197;-85
2022/01/31 11:00:34;;;;;;;4.23;1.63;;;;;;;3.83;100.00;98004.56;5045514;28;20239;-84
2022/01/31 11:03:28;;;;;;;2.33;1.47;;;;;;;3.90;100.00;97992.81;5054719;28;20644;-84
2022/01/31 11:05:58;;;;;;;2.07;1.30;;;;;;;3.84;100.00;97985.28;5055585;28;20189;-83
2022/01/31 11:08:28;;;;;;;1.30;1.10;;;;;;;3.93;100.00;97987.41;5070600;28;20278;-83
2022/01/31 11:11:00;;;;;;;2.57;1.30;;;;;;;3.89;100.00;97990.28;5116610;28;20199;-83
2022/01/31 11:13:31;;;;;;;2.90;1.30;;;;;;;3.91;100.00;97986.66;5114253;28;20207;-84
2022/01/31 11:16:00;;;;;;;1.73;1.30;;;;;;;3.98;100.00;97981.91;5111186;28;20191;-84
2022/01/31 11:18:32;;;;;;;3.00;1.20;;;;;;;4.08;100.00;97984.88;5117108;28;20191;-83
2022/01/31 11:21:05;;;;;;;1.87;1.00;;;;;;;4.14;100.00;97993.19;5116718;28;20195;-83
2022/01/31 11:23:39;;;;;;;2.27;0.87;;;;;;;4.14;100.00;97984.50;5109413;28;20248;-86
2022/01/31 11:26:11;;;;;;;1.63;0.80;;;;;;;4.17;100.00;98000.06;5116172;28;20199;-83
2022/01/31 11:28:42;;;;;;;1.37;0.97;;;;;;;4.09;100.00;97997.03;5091121;28;20192;-83
2022/01/31 11:31:11;;;;;;;2.33;1.00;;;;;;;4.09;100.00;97987.41;5088207;28;20223;-83
2022/01/31 11:33:40;;;;;;;1.80;1.10;;;;;;;4.06;100.00;97994.59;5079760;28;20203;-83
2022/01/31 11:36:12;;;;;;;2.50;1.20;;;;;;;4.07;100.00;97976.16;5086269;28;20183;-85
2022/01/31 11:38:44;;;;;;;1.43;0.70;;;;;;;4.11;100.00;97985.53;5092079;28;20278;-86
2022/01/31 11:41:18;;;;;;;1.10;0.80;;;;;;;4.09;100.00;97984.78;5089334;28;20246;-85
2022/01/31 11:43:56;;;;;;;1.93;0.90;;;;;;;4.09;100.00;97976.06;5091526;28;20196;-85
2022/01/31 11:46:25;;;;;;;1.80;1.03;;;;;;;4.12;100.00;97976.72;5094336;28;20217;-85
2022/01/31 11:48:57;;;;;;;1.83;0.90;;;;;;;4.10;100.00;97975.97;5116617;28;20191;-84
2022/01/31 11:51:29;;;;;;;1.40;0.80;;;;;;;4.18;100.00;97979.00;5109572;28;20198;-86
2022/01/31 11:54:08;;;;;;;1.57;0.90;;;;;;;4.20;100.00;97989.41;5116565;28;20191;-85
2022/01/31 11:56:45;;;;;;;1.53;1.00;;;;;;;4.10;100.00;97981.22;5069454;28;20285;-86
2022/01/31 11:59:15;;;;;;;1.73;1.00;;;;;;;4.21;100.00;97985.84;5069696;28;20200;-86